createdAt,value
2023-08-27T00:04:46.702Z,12.53
2023-08-27T00:10:00.929Z,14.53
2023-08-27T00:15:13.896Z,12.23
2023-08-27T00:20:26.790Z,13.10
2023-08-27T00:25:41.034Z,15.67
2023-08-27T00:31:01.297Z,11.10
2023-08-27T00:36:14.455Z,8.97
2023-08-27T00:41:28.735Z,13.03
2023-08-27T00:46:41.644Z,14.13
2023-08-27T00:51:54.559Z,7.80
2023-08-27T00:57:08.920Z,16.10
2023-08-27T01:02:22.019Z,18.07
2023-08-27T01:07:38.383Z,20.57
2023-08-27T01:12:59.051Z,13.40
2023-08-27T01:18:13.265Z,10.93
2023-08-27T01:23:27.728Z,10.97
2023-08-27T01:28:44.458Z,14.47
2023-08-27T01:34:00.268Z,11.60
2023-08-27T01:39:16.045Z,12.93
2023-08-27T01:44:30.126Z,12.13
2023-08-27T01:49:43.034Z,8.93
2023-08-27T01:54:57.309Z,10.90
2023-08-27T02:00:10.961Z,12.30
2023-08-27T02:05:29.673Z,11.53
2023-08-27T02:10:44.333Z,10.90
2023-08-27T02:15:57.786Z,14.30
2023-08-27T02:21:10.731Z,12.20
2023-08-27T02:26:24.986Z,13.73
2023-08-27T02:31:37.905Z,12.57
2023-08-27T02:36:50.789Z,11.23
2023-08-27T02:42:05.332Z,10.03
2023-08-27T02:47:18.715Z,9.33
2023-08-27T02:52:31.667Z,18.67
2023-08-27T02:57:45.962Z,8.80
2023-08-27T03:02:59.238Z,9.27
2023-08-27T03:08:12.655Z,9.03
2023-08-27T03:13:27.013Z,10.27
2023-08-27T03:18:39.936Z,10.70
2023-08-27T03:23:52.965Z,7.83
2023-08-27T03:29:08.750Z,9.40
2023-08-27T03:34:21.729Z,10.03
2023-08-27T03:39:34.725Z,9.73
2023-08-27T03:44:49.003Z,15.43
2023-08-27T03:50:01.956Z,15.80
2023-08-27T03:55:14.947Z,11.60
2023-08-27T04:00:29.277Z,8.20
2023-08-27T04:05:42.381Z,12.20
2023-08-27T04:10:55.537Z,8.23
2023-08-27T04:16:10.739Z,9.87
2023-08-27T04:21:23.676Z,10.90
2023-08-27T04:26:36.578Z,10.40
2023-08-27T04:31:50.917Z,12.83
2023-08-27T04:37:04.993Z,14.30
2023-08-27T04:42:17.947Z,14.07
2023-08-27T04:47:32.577Z,12.03
2023-08-27T04:52:46.631Z,13.50
2023-08-27T04:57:59.670Z,10.43
2023-08-27T05:03:14.215Z,13.37
2023-08-27T05:08:31.066Z,9.53
2023-08-27T05:13:44.221Z,9.80
2023-08-27T05:18:58.492Z,14.63
2023-08-27T05:24:11.392Z,10.80
2023-08-27T05:29:24.443Z,9.50
2023-08-27T05:34:38.692Z,11.00
2023-08-27T05:39:53.433Z,11.00
2023-08-27T05:45:06.872Z,9.80
2023-08-27T05:50:21.122Z,10.40
2023-08-27T05:55:34.545Z,13.13
2023-08-27T06:00:53.207Z,13.60
2023-08-27T06:06:07.511Z,11.33
2023-08-27T06:11:20.437Z,9.73
2023-08-27T06:16:33.367Z,8.10
2023-08-27T06:21:47.667Z,9.60
2023-08-27T06:27:00.567Z,9.63
2023-08-27T06:32:14.689Z,6.00
2023-08-27T06:37:29.017Z,7.53
2023-08-27T06:42:42.325Z,9.40
2023-08-27T06:47:55.298Z,10.80
2023-08-27T06:53:12.998Z,6.50
2023-08-27T06:58:26.117Z,5.53
2023-08-27T07:03:39.206Z,7.97
2023-08-27T07:08:54.309Z,8.00
2023-08-27T07:14:07.408Z,4.20
2023-08-27T07:19:21.466Z,9.10
2023-08-27T07:24:35.838Z,4.00
2023-08-27T07:29:49.378Z,5.50
2023-08-27T07:35:02.319Z,7.30
2023-08-27T07:40:21.019Z,3.13
2023-08-27T07:45:33.973Z,2.87
2023-08-27T07:50:46.977Z,2.90
2023-08-27T07:56:01.541Z,4.17
2023-08-27T08:01:14.538Z,6.33
2023-08-27T08:06:27.835Z,3.70
2023-08-27T08:14:16.954Z,4.33
2023-08-27T08:19:30.111Z,3.57
2023-08-27T08:24:43.007Z,4.77
2023-08-27T08:29:57.267Z,3.83
2023-08-27T08:35:10.325Z,5.70
2023-08-27T08:40:23.254Z,4.50
2023-08-27T08:45:39.215Z,6.23
2023-08-27T08:50:54.628Z,4.20
2023-08-27T08:56:08.854Z,4.27
2023-08-27T09:01:23.353Z,3.83
2023-08-27T09:06:36.466Z,5.53
2023-08-27T09:11:52.183Z,3.60
2023-08-27T09:17:09.141Z,3.93
2023-08-27T09:22:22.121Z,4.57
2023-08-27T09:27:35.028Z,4.57
2023-08-27T09:32:49.317Z,4.33
2023-08-27T09:38:02.521Z,4.73
2023-08-27T09:43:15.581Z,4.07
2023-08-27T09:48:29.984Z,3.80
2023-08-27T09:53:42.922Z,4.20
2023-08-27T09:58:56.507Z,3.93
2023-08-27T10:04:11.751Z,6.23
2023-08-27T10:09:24.747Z,6.70
2023-08-27T10:14:41.864Z,8.20
2023-08-27T10:19:56.210Z,3.27
2023-08-27T10:25:09.791Z,4.00
2023-08-27T10:30:24.960Z,4.63
2023-08-27T10:35:41.903Z,5.70
2023-08-27T10:40:54.886Z,5.37
2023-08-27T10:46:11.391Z,3.47
2023-08-27T10:51:33.453Z,4.20
2023-08-27T10:56:48.377Z,4.20
2023-08-27T11:02:08.849Z,7.37
2023-08-27T11:07:24.332Z,3.87
2023-08-27T11:12:37.862Z,4.60
2023-08-27T11:17:50.998Z,3.67
2023-08-27T11:23:10.356Z,4.23
2023-08-27T11:28:23.670Z,8.13
2023-08-27T11:33:37.101Z,3.37
2023-08-27T11:38:51.353Z,5.37
2023-08-27T11:44:04.961Z,6.00
2023-08-27T11:49:17.845Z,7.33
2023-08-27T11:54:32.922Z,4.73
2023-08-27T11:59:46.093Z,3.40
2023-08-27T12:04:59.105Z,4.27
2023-08-27T12:10:15.682Z,3.33
2023-08-27T12:15:30.345Z,4.33
2023-08-27T12:20:43.366Z,9.97
2023-08-27T12:25:59.726Z,4.50
2023-08-27T12:31:12.630Z,4.77
2023-08-27T12:36:25.727Z,3.30
2023-08-27T12:41:39.951Z,9.53
2023-08-27T12:46:52.865Z,3.43
2023-08-27T12:52:06.265Z,4.77
2023-08-27T12:57:20.555Z,3.67
2023-08-27T13:02:34.075Z,8.20
2023-08-27T13:07:47.072Z,9.47
2023-08-27T13:13:01.597Z,5.20
2023-08-27T13:18:14.504Z,3.00
2023-08-27T13:23:27.465Z,3.23
2023-08-27T13:28:42.016Z,5.17
2023-08-27T13:33:54.905Z,6.90
2023-08-27T13:39:07.806Z,3.80
2023-08-27T13:44:22.039Z,3.33
2023-08-27T13:49:34.930Z,4.73
2023-08-27T13:54:48.223Z,3.67
2023-08-27T14:00:02.608Z,6.07
2023-08-27T14:05:18.602Z,4.47
2023-08-27T14:10:31.500Z,3.00
2023-08-27T14:15:45.805Z,3.50
2023-08-27T14:20:58.726Z,5.70
2023-08-27T14:26:11.601Z,5.53
2023-08-27T14:31:25.926Z,2.50
2023-08-27T14:36:38.979Z,11.63
2023-08-27T14:41:53.381Z,4.77
2023-08-27T14:47:07.827Z,4.60
2023-08-27T14:52:20.718Z,4.60
2023-08-27T14:57:33.632Z,7.70
2023-08-27T15:02:48.009Z,7.43
2023-08-27T15:08:01.165Z,3.10
2023-08-27T15:13:14.301Z,2.70
2023-08-27T15:18:28.584Z,3.83
2023-08-27T15:23:41.522Z,2.90
2023-08-27T15:28:54.460Z,5.93
2023-08-27T15:34:10.100Z,6.90
2023-08-27T15:39:23.070Z,7.63
2023-08-27T15:44:35.976Z,5.23
2023-08-27T15:49:50.811Z,3.80
2023-08-27T15:55:05.303Z,3.60
2023-08-27T16:00:18.764Z,4.00
2023-08-27T16:05:33.710Z,3.97
2023-08-27T16:10:46.603Z,3.57
2023-08-27T16:15:40.511Z,3.00
2023-08-27T16:20:35.528Z,3.67
2023-08-27T16:25:28.166Z,3.90
2023-08-27T16:30:20.828Z,3.13
2023-08-27T16:35:14.013Z,3.80
2023-08-27T16:40:09.120Z,2.87
2023-08-27T16:45:01.837Z,4.77
2023-08-27T16:49:54.605Z,4.10
2023-08-27T16:54:47.491Z,3.70
2023-08-27T16:59:41.589Z,4.63
2023-08-27T17:04:34.445Z,4.97
2023-08-27T17:09:27.411Z,3.67
2023-08-27T17:14:20.073Z,4.20
2023-08-27T17:19:15.094Z,4.23
2023-08-27T17:24:08.505Z,4.20
2023-08-27T17:29:01.367Z,4.13
2023-08-27T17:33:54.229Z,4.03
2023-08-27T17:38:48.277Z,3.90
2023-08-27T17:43:41.024Z,9.07
2023-08-27T17:48:33.675Z,3.67
2023-08-27T17:53:27.522Z,6.80
2023-08-27T17:58:21.452Z,4.40
2023-08-27T18:03:14.611Z,6.03
2023-08-27T18:08:07.557Z,4.07
2023-08-27T18:13:00.155Z,5.53
2023-08-27T18:17:54.367Z,3.10
2023-08-27T18:22:47.121Z,4.97
2023-08-27T18:27:39.761Z,4.10
2023-08-27T18:32:32.459Z,5.63
2023-08-27T18:37:26.472Z,5.27
2023-08-27T18:42:31.685Z,4.30
2023-08-27T18:47:26.309Z,4.20
2023-08-27T18:52:18.918Z,5.70
2023-08-27T18:57:12.850Z,7.23
2023-08-27T19:02:06.349Z,5.77
2023-08-27T19:06:58.975Z,4.20
2023-08-27T19:11:51.735Z,7.63
2023-08-27T19:16:46.935Z,5.57
2023-08-27T19:21:39.644Z,4.60
2023-08-27T19:26:32.409Z,5.13
2023-08-27T19:31:33.196Z,5.90
2023-08-27T19:36:35.140Z,4.03
2023-08-27T19:41:27.860Z,5.13
2023-08-27T19:46:20.670Z,4.40
2023-08-27T19:51:13.322Z,7.80
2023-08-27T19:56:07.531Z,4.40
2023-08-27T20:01:01.561Z,5.27
2023-08-27T20:05:55.739Z,4.87
2023-08-27T20:10:48.410Z,4.57
2023-08-27T20:15:42.444Z,6.47
2023-08-27T20:20:35.394Z,6.23
2023-08-27T20:25:29.393Z,7.20
2023-08-27T20:30:22.434Z,7.40
2023-08-27T20:35:16.734Z,7.17
2023-08-27T20:40:10.828Z,6.27
2023-08-27T20:45:05.025Z,6.53
2023-08-27T20:49:57.652Z,10.80
2023-08-27T20:54:51.721Z,6.87
2023-08-27T20:59:44.535Z,9.30
2023-08-27T21:04:37.259Z,7.43
2023-08-27T21:09:30.097Z,5.57
2023-08-27T21:14:24.160Z,5.97
2023-08-27T21:19:16.810Z,5.27
2023-08-27T21:24:09.927Z,5.07
2023-08-27T21:29:03.346Z,7.80
2023-08-27T21:33:57.551Z,8.10
2023-08-27T21:38:50.290Z,6.97
2023-08-27T21:43:42.932Z,5.90
2023-08-27T21:48:35.573Z,6.47
2023-08-27T21:53:29.584Z,7.10
2023-08-27T21:58:22.294Z,6.93
2023-08-27T22:03:15.503Z,6.50
2023-08-27T22:08:09.358Z,8.33
2023-08-27T22:13:03.929Z,5.57
2023-08-27T22:17:57.031Z,6.90
2023-08-27T22:22:49.779Z,5.47
2023-08-27T22:27:42.593Z,6.63
2023-08-27T22:32:36.643Z,7.63
2023-08-27T22:37:29.330Z,8.70
2023-08-27T22:42:22.022Z,6.33
2023-08-27T22:47:14.663Z,6.30
2023-08-27T22:52:08.694Z,6.00
2023-08-27T22:57:01.539Z,10.20
2023-08-27T23:01:54.325Z,10.70
2023-08-27T23:06:46.973Z,7.53
2023-08-27T23:11:41.043Z,11.03
2023-08-27T23:16:33.812Z,9.07
2023-08-27T23:21:27.152Z,7.23
2023-08-27T23:26:19.819Z,8.27
2023-08-27T23:31:14.967Z,12.33
2023-08-27T23:36:07.937Z,7.27
2023-08-27T23:41:00.634Z,6.10
2023-08-27T23:45:53.326Z,6.00
2023-08-27T23:50:47.352Z,10.80
2023-08-27T23:55:40.073Z,9.60
